Time;durP1;ratioP1;P1;durP2;ratioP2;P2;SDS_P1;SDS_P2;PMS_P1;PMS_P2;Temp;Humidity;BMP_temperature;BMP_pressure;BME280_temperature;BME280_humidity;BME280_pressure;Samples;Min_cycle;Max_cycle;Signal;HPM_P1;HPM_P2
2021/01/04 00:01:07;;;;;;;0.00;0.00;;;13.20;66.10;;;;;;4213763;28;20056;-40
2021/01/04 00:03:59;;;;;;;0.40;0.40;;;13.20;66.30;;;;;;4213781;28;20487;-41
2021/01/04 00:06:38;;;;;;;0.00;0.00;;;13.20;66.50;;;;;;4213319;28;20506;-40
2021/01/04 00:09:24;;;;;;;0.25;0.22;;;13.20;67.00;;;;;;4213812;28;20058;-41
2021/01/04 00:11:54;;;;;;;0.00;0.00;;;13.20;66.30;;;;;;4213438;28;20131;-41
2021/01/04 00:14:33;;;;;;;0.00;0.00;;;13.20;66.20;;;;;;4213521;28;20051;-41
2021/01/04 00:17:02;;;;;;;0.00;0.00;;;13.10;66.50;;;;;;4213384;28;20054;-40
2021/01/04 00:19:32;;;;;;;0.10;0.10;;;13.10;66.90;;;;;;4212986;28;20064;-41
2021/01/04 00:22:01;;;;;;;0.22;0.22;;;13.10;66.80;;;;;;4213362;28;20054;-41
2021/01/04 00:24:34;;;;;;;0.00;0.00;;;13.10;67.00;;;;;;4213571;28;20055;-40
2021/01/04 00:27:02;;;;;;;0.00;0.00;;;13.10;66.60;;;;;;4213317;28;20126;-40
2021/01/04 00:29:23;;;;;;;0.00;0.00;;;13.10;66.70;;;;;;4213003;28;20059;-40
2021/01/04 00:31:46;;;;;;;0.00;0.00;;;13.10;67.00;;;;;;4213315;28;20148;-40
2021/01/04 00:34:12;;;;;;;0.00;0.00;;;13.10;67.10;;;;;;4213473;28;20506;-40
2021/01/04 00:36:38;;;;;;;0.00;0.00;;;13.00;67.10;;;;;;4213466;28;20138;-41
2021/01/04 00:39:38;;;;;;;0.00;0.00;;;13.00;66.90;;;;;;4213002;28;20060;-40
2021/01/04 00:42:04;;;;;;;0.10;0.10;;;13.00;66.90;;;;;;4161347;28;20060;-40
2021/01/04 00:44:32;;;;;;;0.00;0.00;;;13.00;67.30;;;;;;4161436;28;20060;-40
2021/01/04 00:47:00;;;;;;;0.00;0.00;;;13.00;67.00;;;;;;4190094;28;20048;-40
2021/01/04 00:49:28;;;;;;;0.00;0.00;;;12.90;67.60;;;;;;4212900;28;20048;-41
2021/01/04 00:51:57;;;;;;;0.00;0.00;;;12.90;67.90;;;;;;4213247;28;20044;-40
2021/01/04 00:54:32;;;;;;;0.00;0.00;;;12.90;67.60;;;;;;4212898;28;20063;-40
2021/01/04 00:57:04;;;;;;;0.10;0.10;;;12.90;67.40;;;;;;4212939;28;20044;-41
2021/01/04 00:59:32;;;;;;;0.30;0.30;;;12.90;67.30;;;;;;4212794;28;20474;-40
2021/01/04 01:02:11;;;;;;;0.00;0.00;;;12.90;67.20;;;;;;4212754;28;20079;-40
2021/01/04 01:04:38;;;;;;;0.00;0.00;;;12.90;67.60;;;;;;4212984;28;20105;-40
2021/01/04 01:07:09;;;;;;;0.08;0.08;;;12.90;67.70;;;;;;4212800;28;20054;-41
2021/01/04 01:09:32;;;;;;;1.88;1.45;;;12.90;67.50;;;;;;4212641;28;20064;-40
2021/01/04 01:12:21;;;;;;;0.00;0.00;;;12.80;67.80;;;;;;4213087;28;20055;-41
2021/01/04 01:14:47;;;;;;;0.00;0.00;;;12.80;67.50;;;;;;4212770;28;20047;-41
2021/01/04 01:17:39;;;;;;;0.00;0.00;;;12.80;67.90;;;;;;4212468;28;20058;-41
2021/01/04 01:20:02;;;;;;;0.00;0.00;;;12.80;67.50;;;;;;4212761;28;20425;-41
2021/01/04 01:22:29;;;;;;;0.00;0.00;;;13.00;68.30;;;;;;4212003;28;20081;-40
2021/01/04 01:24:51;;;;;;;0.00;0.00;;;13.30;67.50;;;;;;4212625;28;20052;-40
2021/01/04 01:27:31;;;;;;;0.00;0.00;;;13.40;66.50;;;;;;4211175;28;20058;-41
2021/01/04 01:30:21;;;;;;;0.00;0.00;;;13.50;66.00;;;;;;4212501;28;20434;-41
2021/01/04 01:33:00;;;;;;;0.10;0.10;;;13.60;65.60;;;;;;4212552;28;20506;-40
2021/01/04 01:35:38;;;;;;;0.00;0.00;;;13.60;65.40;;;;;;4194597;28;20056;-40
2021/01/04 01:38:10;;;;;;;0.30;0.30;;;13.50;65.30;;;;;;4196040;28;20060;-41
2021/01/04 01:41:14;;;;;;;0.00;0.00;;;13.50;66.30;;;;;;4195597;28;20106;-40
2021/01/04 01:44:02;;;;;;;0.00;0.00;;;13.50;65.60;;;;;;4200549;28;20512;-40
2021/01/04 01:46:31;;;;;;;0.25;0.25;;;13.40;65.80;;;;;;4212315;28;20056;-40
2021/01/04 01:49:11;;;;;;;0.47;0.47;;;13.40;65.80;;;;;;4204472;28;20044;-40
2021/01/04 01:51:57;;;;;;;0.95;0.95;;;13.40;66.00;;;;;;4212466;28;20059;-40
2021/01/04 01:54:33;;;;;;;13.80;0.80;;;13.40;65.80;;;;;;4211333;28;20494;-41
2021/01/04 01:57:08;;;;;;;0.00;0.00;;;13.40;65.60;;;;;;4212576;28;20856;-40
2021/01/04 01:59:44;;;;;;;0.10;0.10;;;13.40;65.60;;;;;;4212155;28;20075;-40
2021/01/04 02:02:13;;;;;;;0.00;0.00;;;13.40;65.60;;;;;;4211909;28;20105;-41
2021/01/04 02:04:43;;;;;;;0.00;0.00;;;13.30;65.40;;;;;;4211589;28;20552;-41
2021/01/04 02:07:10;;;;;;;0.20;0.20;;;13.30;65.70;;;;;;4195534;28;20176;-40
2021/01/04 02:09:38;;;;;;;0.00;0.00;;;13.30;65.90;;;;;;4195418;28;20062;-40
2021/01/04 02:12:09;;;;;;;0.30;0.30;;;13.50;65.70;;;;;;4199002;28;20056;-40
2021/01/04 02:14:37;;;;;;;0.32;0.32;;;13.90;64.30;;;;;;4212330;28;20621;-40
2021/01/04 02:17:11;;;;;;;0.85;0.38;;;14.20;63.00;;;;;;4197015;28;20499;-42
2021/01/04 02:19:47;;;;;;;0.00;0.00;;;14.30;63.40;;;;;;4194339;28;20863;-40
2021/01/04 02:22:36;;;;;;;0.00;0.00;;;14.40;61.90;;;;;;4199987;28;20048;-40
2021/01/04 02:24:57;;;;;;;0.47;0.15;;;14.30;62.60;;;;;;4212106;28;20051;-41
2021/01/04 02:27:23;;;;;;;0.00;0.00;;;14.30;61.90;;;;;;4197495;28;20056;-41
2021/01/04 02:29:44;;;;;;;0.95;0.75;;;14.20;62.00;;;;;;4211823;28;20052;-41
2021/01/04 02:32:07;;;;;;;0.20;0.20;;;14.10;62.30;;;;;;4211834;28;20555;-41
2021/01/04 02:34:33;;;;;;;0.00;0.00;;;14.10;62.50;;;;;;4211914;28;20453;-40
2021/01/04 02:36:56;;;;;;;0.00;0.00;;;14.10;62.80;;;;;;4211799;28;20071;-41
2021/01/04 02:39:21;;;;;;;0.00;0.00;;;14.10;62.50;;;;;;4211891;28;20056;-40
2021/01/04 02:42:02;;;;;;;0.00;0.00;;;14.30;61.70;;;;;;4211784;28;20544;-41
2021/01/04 02:44:25;;;;;;;;;;;14.50;61.10;;;;;;4212511;28;20047;-41
2021/01/04 02:47:09;;;;;;;0.00;0.00;;;14.60;60.80;;;;;;4211724;28;19930;-41
2021/01/04 02:49:36;;;;;;;0.28;0.28;;;14.60;60.50;;;;;;4211969;28;20052;-40
2021/01/04 02:52:06;;;;;;;0.00;0.00;;;14.60;60.60;;;;;;4211887;28;20052;-41
2021/01/04 02:54:31;;;;;;;1.25;1.20;;;14.50;60.80;;;;;;4211865;28;20055;-40
2021/01/04 02:57:03;;;;;;;0.22;0.22;;;14.40;61.10;;;;;;4200482;28;20044;-40
2021/01/04 02:59:48;;;;;;;0.00;0.00;;;14.40;61.50;;;;;;4211708;28;20322;-41
2021/01/04 03:02:14;;;;;;;0.00;0.00;;;14.50;61.10;;;;;;4211635;28;20063;-41
2021/01/04 03:04:37;;;;;;;0.00;0.00;;;14.70;60.30;;;;;;4211728;28;20052;-43
2021/01/04 03:07:00;;;;;;;0.00;0.00;;;14.90;59.60;;;;;;4214099;28;20135;-41
2021/01/04 03:09:23;;;;;;;1.20;1.10;;;15.00;59.20;;;;;;4214857;28;20752;-45
2021/01/04 03:11:44;;;;;;;0.00;0.00;;;15.00;59.10;;;;;;4214717;28;20076;-42
2021/01/04 03:14:18;;;;;;;0.00;0.00;;;15.00;59.00;;;;;;4198237;28;20058;-41
2021/01/04 03:16:49;;;;;;;0.00;0.00;;;15.00;59.20;;;;;;4203733;28;20059;-41
2021/01/04 03:19:14;;;;;;;0.17;0.17;;;15.00;58.90;;;;;;4214518;28;20048;-40
2021/01/04 03:21:35;;;;;;;0.00;0.00;;;15.20;58.60;;;;;;4214711;28;20052;-40
2021/01/04 03:23:58;;;;;;;7.47;1.75;;;15.20;58.40;;;;;;4197610;28;20481;-41
2021/01/04 03:26:21;;;;;;;1.65;1.25;;;15.20;58.50;;;;;;4197989;28;20052;-41
2021/01/04 03:28:42;;;;;;;0.00;0.00;;;15.10;58.60;;;;;;4197698;28;20499;-41
2021/01/04 03:31:05;;;;;;;0.30;0.30;;;15.10;58.60;;;;;;4197753;28;20140;-41
2021/01/04 03:33:27;;;;;;;0.00;0.00;;;15.10;58.60;;;;;;4211782;28;20088;-41
2021/01/04 03:35:48;;;;;;;0.15;0.10;;;15.00;58.70;;;;;;4214079;28;20052;-41
2021/01/04 03:38:11;;;;;;;0.00;0.00;;;15.00;58.80;;;;;;4214073;28;20139;-41
2021/01/04 03:40:31;;;;;;;0.00;0.00;;;15.20;59.00;;;;;;4214209;28;20059;-41
2021/01/04 03:42:52;;;;;;;0.00;0.00;;;15.20;58.10;;;;;;4214055;28;20059;-41
2021/01/04 03:45:15;;;;;;;0.00;0.00;;;15.30;58.50;;;;;;4214583;28;20126;-40
2021/01/04 03:47:37;;;;;;;0.00;0.00;;;15.30;57.70;;;;;;4213799;28;20051;-44
2021/01/04 03:49:58;;;;;;;0.00;0.00;;;15.40;57.60;;;;;;4214129;28;20399;-45
2021/01/04 03:52:20;;;;;;;0.00;0.00;;;15.30;57.70;;;;;;4214025;28;20087;-41
2021/01/04 03:54:42;;;;;;;0.10;0.10;;;15.30;57.90;;;;;;4214063;28;20137;-41
2021/01/04 03:57:03;;;;;;;0.00;0.00;;;15.20;58.00;;;;;;4213674;28;20472;-40
2021/01/04 03:59:24;;;;;;;0.00;0.00;;;15.10;58.20;;;;;;4214075;28;20066;-40
2021/01/04 04:01:48;;;;;;;0.00;0.00;;;15.10;58.30;;;;;;4213505;28;20056;-41
2021/01/04 04:04:10;;;;;;;0.00;0.00;;;15.20;58.50;;;;;;4214091;28;20469;-41
2021/01/04 04:06:31;;;;;;;2.50;0.50;;;15.20;58.20;;;;;;4213787;28;20075;-40
2021/01/04 04:08:52;;;;;;;0.22;0.22;;;15.20;58.00;;;;;;4213911;28;20051;-40
2021/01/04 04:11:15;;;;;;;0.10;0.10;;;15.10;58.10;;;;;;4214171;28;20139;-40
2021/01/04 04:13:36;;;;;;;0.05;0.05;;;15.10;58.40;;;;;;4213433;28;20069;-41
2021/01/04 04:15:57;;;;;;;0.03;0.03;;;15.10;58.40;;;;;;4213708;28;20452;-40
2021/01/04 04:18:18;;;;;;;0.00;0.00;;;15.10;58.10;;;;;;4213206;28;20052;-40
2021/01/04 04:20:39;;;;;;;0.00;0.00;;;15.20;58.10;;;;;;4213225;28;20374;-41
2021/01/04 04:23:00;;;;;;;0.75;0.63;;;15.30;57.80;;;;;;4213764;28;20044;-40
2021/01/04 04:25:23;;;;;;;0.20;0.20;;;15.20;57.70;;;;;;4213356;28;20482;-40
2021/01/04 04:27:44;;;;;;;0.05;0.05;;;15.30;57.80;;;;;;4213866;28;20499;-41
2021/01/04 04:30:09;;;;;;;0.05;0.05;;;15.30;57.80;;;;;;4212967;28;20482;-41
2021/01/04 04:32:31;;;;;;;0.75;0.55;;;15.40;57.00;;;;;;4213169;28;20063;-40
2021/01/04 04:34:51;;;;;;;0.05;0.05;;;15.40;57.00;;;;;;4213433;28;20506;-40
2021/01/04 04:37:13;;;;;;;0.60;0.50;;;15.40;57.10;;;;;;4196569;28;20137;-41
2021/01/04 04:39:35;;;;;;;0.00;0.00;;;15.30;57.10;;;;;;4201764;28;20052;-41
2021/01/04 04:41:56;;;;;;;0.00;0.00;;;15.30;57.20;;;;;;4213227;28;20055;-40
2021/01/04 04:44:25;;;;;;;0.00;0.00;;;15.40;56.90;;;;;;4196903;28;20064;-41
2021/01/04 04:47:06;;;;;;;0.00;0.00;;;15.40;56.80;;;;;;4210703;28;20162;-41
2021/01/04 04:49:45;;;;;;;0.00;0.00;;;15.40;56.90;;;;;;4213246;28;20055;-41
2021/01/04 04:52:20;;;;;;;0.00;0.00;;;15.30;57.10;;;;;;4213069;28;20055;-41
2021/01/04 04:54:59;;;;;;;0.00;0.00;;;15.40;57.00;;;;;;4212894;28;20049;-40
2021/01/04 04:57:45;;;;;;;0.00;0.00;;;15.40;56.90;;;;;;4212836;28;20441;-41
2021/01/04 05:00:23;;;;;;;0.00;0.00;;;15.30;57.10;;;;;;4209980;28;20080;-40
2021/01/04 05:02:52;;;;;;;0.00;0.00;;;15.30;57.20;;;;;;4213230;28;20052;-41
2021/01/04 05:05:25;;;;;;;0.00;0.00;;;15.30;57.00;;;;;;4212985;28;20130;-41
2021/01/04 05:07:54;;;;;;;0.00;0.00;;;15.30;57.00;;;;;;4212762;28;20700;-41
2021/01/04 05:10:18;;;;;;;0.00;0.00;;;15.20;57.20;;;;;;4212858;28;20582;-41
2021/01/04 05:12:48;;;;;;;0.00;0.00;;;15.10;57.40;;;;;;4212942;28;20063;-42
2021/01/04 05:15:28;;;;;;;0.00;0.00;;;15.00;57.80;;;;;;4212586;28;20482;-42
2021/01/04 05:18:19;;;;;;;0.63;0.63;;;15.00;57.80;;;;;;4212386;28;20052;-41
2021/01/04 05:21:21;;;;;;;0.00;0.00;;;15.20;57.20;;;;;;4212373;28;20139;-42
2021/01/04 05:24:31;;;;;;;0.20;0.20;;;15.40;56.70;;;;;;4212845;28;20460;-41
2021/01/04 05:27:19;;;;;;;0.00;0.00;;;15.50;56.40;;;;;;4212272;28;20072;-41
2021/01/04 05:30:12;;;;;;;0.10;0.10;;;15.50;56.00;;;;;;4211992;28;20056;-41
2021/01/04 05:32:55;;;;;;;0.00;0.00;;;15.60;55.80;;;;;;4211960;28;20218;-45
2021/01/04 05:35:17;;;;;;;0.00;0.00;;;15.60;55.80;;;;;;4211370;28;20513;-41
2021/01/04 05:37:45;;;;;;;0.20;0.20;;;15.50;56.10;;;;;;4212502;28;20055;-41
2021/01/04 05:40:23;;;;;;;0.00;0.00;;;15.50;56.20;;;;;;4212305;28;20523;-41
2021/01/04 05:43:10;;;;;;;0.00;0.00;;;15.40;56.50;;;;;;4212699;28;20060;-41
2021/01/04 05:45:34;;;;;;;0.00;0.00;;;15.20;56.70;;;;;;4212213;28;20056;-40
2021/01/04 05:48:06;;;;;;;0.00;0.00;;;15.10;57.10;;;;;;4212441;28;20048;-40
2021/01/04 05:50:37;;;;;;;0.00;0.00;;;15.00;57.30;;;;;;4212223;28;20134;-40
2021/01/04 05:52:59;;;;;;;0.00;0.00;;;15.10;57.40;;;;;;4212519;28;20052;-40
2021/01/04 05:55:22;;;;;;;0.00;0.00;;;15.10;57.20;;;;;;4211945;28;20052;-41
2021/01/04 05:57:47;;;;;;;0.00;0.00;;;15.10;57.30;;;;;;4212103;28;20056;-41
2021/01/04 06:00:09;;;;;;;0.20;0.20;;;15.00;57.50;;;;;;4212402;28;20058;-41
2021/01/04 06:02:34;;;;;;;0.00;0.00;;;15.00;57.40;;;;;;4211981;28;20468;-41
2021/01/04 06:05:08;;;;;;;0.00;0.00;;;15.10;57.20;;;;;;4212110;28;20395;-41
2021/01/04 06:07:34;;;;;;;0.00;0.00;;;15.30;56.80;;;;;;4212016;28;20541;-41
2021/01/04 06:09:58;;;;;;;0.00;0.00;;;15.30;56.30;;;;;;4212123;28;20071;-41
2021/01/04 06:12:33;;;;;;;0.00;0.00;;;15.50;56.20;;;;;;4212258;28;20135;-41
2021/01/04 06:14:58;;;;;;;0.20;0.20;;;15.60;55.70;;;;;;4212338;28;20630;-40
2021/01/04 06:17:32;;;;;;;0.00;0.00;;;15.70;55.40;;;;;;4211648;28;20059;-40
2021/01/04 06:19:54;;;;;;;0.00;0.00;;;15.80;55.10;;;;;;4212378;28;20051;-40
2021/01/04 06:22:17;;;;;;;0.00;0.00;;;15.80;55.00;;;;;;4212131;28;20060;-41
2021/01/04 06:24:39;;;;;;;0.00;0.00;;;15.80;55.10;;;;;;4212064;28;20144;-41
2021/01/04 06:27:08;;;;;;;0.00;0.00;;;15.80;54.90;;;;;;4212145;28;20502;-42
2021/01/04 06:29:36;;;;;;;0.00;0.00;;;15.80;55.00;;;;;;4211363;28;20055;-40
2021/01/04 06:31:58;;;;;;;3.53;1.77;;;15.80;55.30;;;;;;4211510;28;20052;-41
2021/01/04 06:34:24;;;;;;;0.00;0.00;;;15.90;55.90;;;;;;4210392;28;20056;-41
2021/01/04 06:36:49;;;;;;;1.25;1.23;;;16.00;55.80;;;;;;4211656;28;20055;-42
2021/01/04 06:39:17;;;;;;;4.07;1.98;;;16.00;55.60;;;;;;4211937;28;20760;-41
2021/01/04 06:41:38;;;;;;;0.30;0.28;;;15.90;55.50;;;;;;4215271;28;20055;-41
2021/01/04 06:44:08;;;;;;;;;;;15.90;55.60;;;;;;4216121;28;20098;-49
2021/01/04 06:46:41;;;;;;;0.40;0.40;;;15.90;55.90;;;;;;4215065;28;19928;-41
2021/01/04 06:49:06;;;;;;;0.00;0.00;;;16.00;55.50;;;;;;4214591;28;20056;-42
2021/01/04 06:51:47;;;;;;;0.85;0.85;;;15.90;55.40;;;;;;4214786;28;20071;-40
2021/01/04 06:54:35;;;;;;;0.00;0.00;;;15.80;55.60;;;;;;4215169;28;20052;-41
2021/01/04 06:57:21;;;;;;;0.00;0.00;;;15.80;55.50;;;;;;4203624;28;20510;-41
2021/01/04 07:00:19;;;;;;;0.00;0.00;;;15.80;55.70;;;;;;4214632;28;20060;-42
2021/01/04 07:03:17;;;;;;;0.00;0.00;;;15.80;55.60;;;;;;4213929;28;20082;-42
2021/01/04 07:06:05;;;;;;;0.00;0.00;;;15.90;55.50;;;;;;4214944;28;20414;-41
2021/01/04 07:09:02;;;;;;;0.00;0.00;;;16.00;55.50;;;;;;4214899;28;20052;-43
2021/01/04 07:11:41;;;;;;;0.00;0.00;;;16.10;55.20;;;;;;4179263;28;20156;-42
2021/01/04 07:14:15;;;;;;;0.00;0.00;;;15.90;55.30;;;;;;4213945;28;20048;-41
2021/01/04 07:16:59;;;;;;;0.00;0.00;;;15.90;55.40;;;;;;4214975;28;20044;-42
2021/01/04 07:19:42;;;;;;;0.00;0.00;;;15.80;55.50;;;;;;4214975;28;20132;-41
2021/01/04 07:22:07;;;;;;;0.30;0.30;;;15.60;55.80;;;;;;4214876;28;20524;-41
2021/01/04 07:24:40;;;;;;;0.00;0.00;;;15.70;55.80;;;;;;4214533;28;20093;-40
2021/01/04 07:27:32;;;;;;;0.00;0.00;;;15.60;56.50;;;;;;4205532;28;20063;-41
2021/01/04 07:30:08;;;;;;;0.00;0.00;;;15.50;55.90;;;;;;4214624;28;20052;-41
2021/01/04 07:32:43;;;;;;;0.00;0.00;;;15.50;56.10;;;;;;4214707;28;20476;-41
2021/01/04 07:35:09;;;;;;;0.00;0.00;;;15.40;56.50;;;;;;4214639;28;20072;-41
2021/01/04 07:37:42;;;;;;;0.00;0.00;;;15.30;56.50;;;;;;4214565;28;20059;-41
2021/01/04 07:40:16;;;;;;;0.00;0.00;;;15.40;56.40;;;;;;4214424;28;20062;-41
2021/01/04 07:42:59;;;;;;;0.00;0.00;;;15.50;56.20;;;;;;4214417;28;20058;-41
2021/01/04 07:45:32;;;;;;;0.90;0.90;;;15.50;56.20;;;;;;4213901;28;20105;-41
2021/01/04 07:48:40;;;;;;;0.00;0.00;;;15.40;56.30;;;;;;4214190;28;20076;-42
2021/01/04 07:51:27;;;;;;;0.00;0.00;;;15.40;56.10;;;;;;4213733;28;20053;-41
2021/01/04 07:54:32;;;;;;;0.00;0.00;;;15.50;56.00;;;;;;4214214;28;20717;-41
2021/01/04 07:57:30;;;;;;;0.00;0.00;;;15.40;55.90;;;;;;4213697;28;20102;-40
2021/01/04 08:00:08;;;;;;;0.00;0.00;;;15.30;56.10;;;;;;4213988;28;20117;-40
2021/01/04 08:03:05;;;;;;;;;;;15.20;56.40;;;;;;4214356;28;20413;-40
2021/01/04 08:06:00;;;;;;;0.00;0.00;;;15.10;56.50;;;;;;4178448;28;20024;-40
2021/01/04 08:08:30;;;;;;;0.08;0.08;;;15.00;56.80;;;;;;4178671;28;20059;-40
2021/01/04 08:11:28;;;;;;;0.00;0.00;;;15.00;57.00;;;;;;4204278;28;20048;-40
2021/01/04 08:14:29;;;;;;;0.00;0.00;;;15.00;57.10;;;;;;4206288;28;20130;-40
2021/01/04 08:16:53;;;;;;;0.00;0.00;;;14.90;56.90;;;;;;4196847;28;20053;-41
2021/01/04 08:19:17;;;;;;;0.00;0.00;;;14.90;57.10;;;;;;4207557;28;20056;-41
2021/01/04 08:21:48;;;;;;;0.00;0.00;;;14.90;57.10;;;;;;4213378;28;20058;-41
2021/01/04 08:24:17;;;;;;;0.00;0.00;;;15.00;56.80;;;;;;4213569;28;20052;-41
2021/01/04 08:27:06;;;;;;;0.17;0.17;;;15.10;56.70;;;;;;4213413;28;20081;-40
2021/01/04 08:29:37;;;;;;;0.05;0.05;;;15.10;56.50;;;;;;4213180;28;20056;-41
2021/01/04 08:32:06;;;;;;;0.00;0.00;;;15.00;56.40;;;;;;4213301;28;20055;-40
2021/01/04 08:34:38;;;;;;;0.00;0.00;;;14.90;56.50;;;;;;4213409;28;20056;-40
2021/01/04 08:37:00;;;;;;;3.20;0.52;;;14.80;56.80;;;;;;4213487;28;20113;-40
2021/01/04 08:39:42;;;;;;;0.17;0.17;;;14.70;57.00;;;;;;4213200;28;20083;-40
2021/01/04 08:42:17;;;;;;;0.00;0.00;;;14.70;57.10;;;;;;4213430;28;20659;-40
2021/01/04 08:44:38;;;;;;;0.00;0.00;;;14.80;56.90;;;;;;4213098;28;20126;-41
2021/01/04 08:47:08;;;;;;;0.00;0.00;;;15.00;56.30;;;;;;4213080;28;20048;-40
2021/01/04 08:49:40;;;;;;;0.00;0.00;;;15.20;56.00;;;;;;4210782;28;20051;-41
2021/01/04 08:52:14;;;;;;;0.00;0.00;;;15.10;57.10;;;;;;4212756;28;20048;-40
2021/01/04 08:54:35;;;;;;;0.00;0.00;;;15.20;57.10;;;;;;4211998;28;20055;-41
2021/01/04 08:57:14;;;;;;;0.00;0.00;;;15.20;56.90;;;;;;4212878;28;20086;-41
2021/01/04 08:59:36;;;;;;;0.10;0.10;;;15.20;56.60;;;;;;4212532;28;20777;-41
2021/01/04 09:01:59;;;;;;;0.00;0.00;;;15.10;56.60;;;;;;4211897;28;20411;-40
2021/01/04 09:04:30;;;;;;;0.00;0.00;;;15.20;56.50;;;;;;4208723;28;20071;-41
2021/01/04 09:07:06;;;;;;;0.00;0.00;;;15.30;56.20;;;;;;4212741;28;20051;-40
2021/01/04 09:09:35;;;;;;;0.03;0.03;;;15.20;56.20;;;;;;4212509;28;20502;-40
2021/01/04 09:12:04;;;;;;;0.82;0.57;;;15.30;56.00;;;;;;4211152;28;20142;-40
2021/01/04 09:14:33;;;;;;;0.00;0.00;;;15.30;55.90;;;;;;4212712;28;20406;-40
2021/01/04 09:16:55;;;;;;;0.00;0.00;;;15.20;56.00;;;;;;4212395;28;20563;-40
2021/01/04 09:19:24;;;;;;;0.00;0.00;;;15.10;56.10;;;;;;4212333;28;20048;-40
2021/01/04 09:21:46;;;;;;;2.90;1.75;;;15.20;56.20;;;;;;4212364;28;20497;-40
2021/01/04 09:24:16;;;;;;;0.00;0.00;;;15.30;55.80;;;;;;4212531;28;20056;-40
2021/01/04 09:26:39;;;;;;;0.00;0.00;;;15.30;55.50;;;;;;4212469;28;20070;-40
2021/01/04 09:29:16;;;;;;;0.00;0.00;;;15.50;55.20;;;;;;4211905;28;20044;-41
2021/01/04 09:31:46;;;;;;;0.25;0.25;;;15.50;55.20;;;;;;4212418;28;20051;-42
2021/01/04 09:34:14;;;;;;;0.08;0.08;;;15.50;55.20;;;;;;4210741;28;20273;-41
2021/01/04 09:36:34;;;;;;;0.00;0.00;;;15.40;55.10;;;;;;4202557;28;20054;-41
2021/01/04 09:39:06;;;;;;;21.38;1.27;;;15.30;55.30;;;;;;4212895;28;20509;-41
2021/01/04 09:41:28;;;;;;;0.00;0.00;;;15.60;55.10;;;;;;4212143;28;20055;-40
2021/01/04 09:43:48;;;;;;;0.00;0.00;;;15.80;54.40;;;;;;4211653;28;20054;-42
2021/01/04 09:46:17;;;;;;;;;;;15.90;54.30;;;;;;4212691;28;20576;-43
2021/01/04 09:48:44;;;;;;;0.00;0.00;;;15.80;54.30;;;;;;4211486;28;19930;-41
2021/01/04 09:51:08;;;;;;;0.00;0.00;;;15.70;54.30;;;;;;4212395;28;20198;-41
2021/01/04 09:53:32;;;;;;;0.30;0.30;;;15.60;54.40;;;;;;4212309;28;20044;-42
2021/01/04 09:55:59;;;;;;;0.00;0.00;;;15.60;54.30;;;;;;4211950;28;20048;-41
2021/01/04 09:58:21;;;;;;;0.00;0.00;;;15.50;54.50;;;;;;4211793;28;20055;-41
2021/01/04 10:00:42;;;;;;;0.00;0.00;;;15.50;54.50;;;;;;4195565;28;20056;-41
2021/01/04 10:03:06;;;;;;;0.55;0.55;;;15.50;54.60;;;;;;4202020;28;20151;-40
2021/01/04 10:05:37;;;;;;;0.00;0.00;;;15.40;54.70;;;;;;4212607;28;20161;-43
2021/01/04 10:07:58;;;;;;;0.00;0.00;;;15.40;54.60;;;;;;4211863;28;20060;-41
2021/01/04 10:10:20;;;;;;;;;;;15.40;54.80;;;;;;4212383;28;20069;-41
2021/01/04 10:12:41;;;;;;;3.25;0.68;;;15.30;54.90;;;;;;4211455;28;19924;-41
2021/01/04 10:15:03;;;;;;;;;;;15.30;55.20;;;;;;4211747;28;20218;-40
2021/01/04 10:17:29;;;;;;;0.00;0.00;;;15.20;55.40;;;;;;4212236;28;19920;-41
2021/01/04 10:19:55;;;;;;;0.10;0.10;;;15.20;55.60;;;;;;4215690;28;20052;-42
2021/01/04 10:22:24;;;;;;;0.00;0.00;;;15.20;55.90;;;;;;4215580;28;20131;-41
2021/01/04 10:24:53;;;;;;;0.03;0.03;;;15.40;55.60;;;;;;4214652;28;20483;-42
2021/01/04 10:27:18;;;;;;;0.00;0.00;;;15.50;55.10;;;;;;4216002;28;20078;-41
2021/01/04 10:29:53;;;;;;;0.00;0.00;;;15.60;55.70;;;;;;4214596;28;20083;-41
2021/01/04 10:32:21;;;;;;;0.00;0.00;;;15.50;54.70;;;;;;4215468;28;20059;-42
2021/01/04 10:34:45;;;;;;;0.00;0.00;;;15.50;54.80;;;;;;4215036;28;20048;-41
2021/01/04 10:37:16;;;;;;;0.00;0.00;;;15.30;55.00;;;;;;4215202;28;20101;-41
2021/01/04 10:39:41;;;;;;;0.00;0.00;;;15.20;55.40;;;;;;4215252;28;20060;-41
2021/01/04 10:42:08;;;;;;;0.00;0.00;;;15.20;55.50;;;;;;4215291;28;20055;-41
2021/01/04 10:44:29;;;;;;;0.00;0.00;;;15.20;55.50;;;;;;4215138;28;20560;-41
2021/01/04 10:46:54;;;;;;;;;;;15.20;55.40;;;;;;4215931;28;20498;-41
2021/01/04 10:49:26;;;;;;;0.00;0.00;;;15.30;55.30;;;;;;4198449;28;19924;-42
2021/01/04 10:51:50;;;;;;;0.00;0.00;;;15.20;55.30;;;;;;4198178;28;20053;-41
2021/01/04 10:54:17;;;;;;;0.00;0.00;;;15.20;55.10;;;;;;4214879;28;20056;-41
2021/01/04 10:56:43;;;;;;;0.10;0.10;;;15.30;55.00;;;;;;4214919;28;20144;-41
2021/01/04 10:59:14;;;;;;;0.00;0.00;;;15.20;55.00;;;;;;4214005;28;20134;-42
2021/01/04 11:01:40;;;;;;;0.00;0.00;;;15.10;55.20;;;;;;4214514;28;20059;-48
2021/01/04 11:04:07;;;;;;;0.00;0.00;;;15.10;55.40;;;;;;4210502;28;20456;-41
2021/01/04 11:06:32;;;;;;;0.73;0.73;;;15.00;55.30;;;;;;4214814;28;20077;-41
2021/01/04 11:08:53;;;;;;;0.17;0.17;;;15.10;55.60;;;;;;4214637;28;20047;-41
2021/01/04 11:11:31;;;;;;;0.10;0.10;;;15.00;55.80;;;;;;4215019;28;20129;-42
2021/01/04 11:13:52;;;;;;;0.00;0.00;;;15.20;55.50;;;;;;4214834;28;20521;-41
2021/01/04 11:16:16;;;;;;;0.00;0.00;;;15.30;55.00;;;;;;4214651;28;20052;-41
2021/01/04 11:18:53;;;;;;;0.00;0.00;;;15.30;55.00;;;;;;4214359;28;20128;-41
2021/01/04 11:21:15;;;;;;;0.00;0.00;;;15.30;55.20;;;;;;4214318;28;20058;-41
2021/01/04 11:23:36;;;;;;;0.30;0.30;;;15.30;55.20;;;;;;4214430;28;20569;-43
2021/01/04 11:25:58;;;;;;;0.00;0.00;;;15.30;55.30;;;;;;4214662;28;20063;-41
2021/01/04 11:28:19;;;;;;;0.10;0.10;;;15.30;55.30;;;;;;4213672;28;20052;-42
2021/01/04 11:30:50;;;;;;;0.00;0.00;;;15.30;55.30;;;;;;4214198;28;20056;-41
2021/01/04 11:33:15;;;;;;;0.00;0.00;;;15.30;55.40;;;;;;4213791;28;20056;-41
2021/01/04 11:35:36;;;;;;;3.25;0.98;;;15.20;55.60;;;;;;4214821;28;20489;-40
2021/01/04 11:37:57;;;;;;;;;;;15.20;55.60;;;;;;4200349;28;20215;-41
2021/01/04 11:40:22;;;;;;;0.00;0.00;;;15.10;55.80;;;;;;4213817;28;19920;-41
2021/01/04 11:42:43;;;;;;;0.00;0.00;;;15.00;56.00;;;;;;4214566;28;20063;-41
2021/01/04 11:45:08;;;;;;;0.00;0.00;;;14.90;56.30;;;;;;4214180;28;20127;-40
2021/01/04 11:47:30;;;;;;;0.68;0.13;;;14.80;56.50;;;;;;4212557;28;20048;-41
2021/01/04 11:49:51;;;;;;;0.00;0.00;;;14.70;56.70;;;;;;4214174;28;20056;-40
2021/01/04 11:52:12;;;;;;;0.00;0.00;;;14.80;56.80;;;;;;4213083;28;20111;-42
2021/01/04 11:54:33;;;;;;;0.00;0.00;;;14.90;56.50;;;;;;4213898;28;20135;-40
2021/01/04 11:56:54;;;;;;;0.00;0.00;;;15.00;56.30;;;;;;4213712;28;20142;-40
2021/01/04 11:59:17;;;;;;;0.00;0.00;;;15.00;56.20;;;;;;4214492;28;20506;-41
2021/01/04 12:01:38;;;;;;;0.00;0.00;;;15.00;56.20;;;;;;4213326;28;20494;-41
2021/01/04 12:04:00;;;;;;;0.40;0.40;;;14.90;56.40;;;;;;4208002;28;20386;-40
2021/01/04 12:06:21;;;;;;;0.00;0.00;;;14.90;56.60;;;;;;4213089;28;20543;-40
2021/01/04 12:08:42;;;;;;;0.00;0.00;;;15.10;56.50;;;;;;4213694;28;20059;-41
2021/01/04 12:11:03;;;;;;;;;;;15.20;55.80;;;;;;4214176;28;20123;-41
2021/01/04 12:13:24;;;;;;;0.45;0.45;;;15.40;55.50;;;;;;4213617;28;20023;-40
2021/01/04 12:15:45;;;;;;;0.00;0.00;;;15.50;55.30;;;;;;4214015;28;20051;-40
2021/01/04 12:18:07;;;;;;;0.10;0.10;;;15.50;55.00;;;;;;4213441;28;20131;-40
2021/01/04 12:20:29;;;;;;;0.00;0.00;;;15.40;55.10;;;;;;4213736;28;20074;-41
2021/01/04 12:22:50;;;;;;;0.00;0.00;;;15.40;55.20;;;;;;4213676;28;20043;-43
2021/01/04 12:25:12;;;;;;;;;;;15.40;55.30;;;;;;4214332;28;20072;-40
2021/01/04 12:27:33;;;;;;;0.00;0.00;;;15.40;55.30;;;;;;4213507;28;19924;-41
2021/01/04 12:29:54;;;;;;;0.00;0.00;;;15.30;55.50;;;;;;4213216;28;20044;-40
2021/01/04 12:32:17;;;;;;;0.00;0.00;;;15.30;55.50;;;;;;4213556;28;20101;-40
2021/01/04 12:34:38;;;;;;;0.00;0.00;;;15.20;55.70;;;;;;4213441;28;20068;-40
2021/01/04 12:37:00;;;;;;;0.00;0.00;;;15.20;55.80;;;;;;4213508;28;20052;-41
2021/01/04 12:39:21;;;;;;;0.00;0.00;;;15.30;55.30;;;;;;4213231;28;20048;-40
2021/01/04 12:41:43;;;;;;;0.00;0.00;;;15.40;55.20;;;;;;4196403;28;20148;-40
2021/01/04 12:44:04;;;;;;;;;;;15.40;54.90;;;;;;4197389;28;20052;-40
2021/01/04 12:46:25;;;;;;;0.00;0.00;;;15.50;54.70;;;;;;4198166;28;19928;-40
2021/01/04 12:48:45;;;;;;;0.00;0.00;;;15.50;54.60;;;;;;4213310;28;20059;-41
2021/01/04 12:51:07;;;;;;;0.00;0.00;;;15.60;54.60;;;;;;4213333;28;20052;-41
2021/01/04 12:53:29;;;;;;;0.00;0.00;;;15.60;54.50;;;;;;4213236;28;20051;-41
2021/01/04 12:55:50;;;;;;;0.00;0.00;;;15.60;54.30;;;;;;4213351;28;20125;-41
2021/01/04 12:58:11;;;;;;;0.00;0.00;;;15.60;54.30;;;;;;4212682;28;20052;-41
2021/01/04 13:00:34;;;;;;;0.00;0.00;;;15.60;54.40;;;;;;4213473;28;20478;-41
2021/01/04 13:02:55;;;;;;;0.00;0.00;;;15.50;54.30;;;;;;4212511;28;20043;-40